createdAt,value
2018-06-22T00:00:51.705Z,20.66
2018-06-22T00:03:20.699Z,20.65
2018-06-22T00:05:49.713Z,20.64
2018-06-22T00:08:18.687Z,20.61
2018-06-22T00:10:47.680Z,20.60
2018-06-22T00:13:16.629Z,20.62
2018-06-22T00:15:45.693Z,20.60
2018-06-22T00:18:14.720Z,20.61
2018-06-22T00:20:43.708Z,20.58
2018-06-22T00:23:12.719Z,20.56
2018-06-22T00:25:41.651Z,20.53
2018-06-22T00:28:10.696Z,20.49
2018-06-22T00:30:39.744Z,20.43
2018-06-22T00:33:08.692Z,20.41
2018-06-22T00:35:37.673Z,20.35
2018-06-22T00:38:06.682Z,20.31
2018-06-22T00:40:35.620Z,20.29
2018-06-22T00:43:04.652Z,20.24
2018-06-22T00:45:33.649Z,20.17
2018-06-22T00:48:02.767Z,20.15
2018-06-22T00:50:31.774Z,20.10
2018-06-22T00:53:00.777Z,20.10
2018-06-22T00:55:29.778Z,20.09
2018-06-22T00:57:58.736Z,20.10
2018-06-22T01:00:27.748Z,20.13
2018-06-22T01:02:56.749Z,20.11
2018-06-22T01:05:25.757Z,20.08
2018-06-22T01:07:54.839Z,20.04
2018-06-22T01:10:23.781Z,19.98
2018-06-22T01:12:52.778Z,19.93
2018-06-22T01:15:21.719Z,19.92
2018-06-22T01:17:50.765Z,19.87
2018-06-22T01:20:19.742Z,19.81
2018-06-22T01:22:48.736Z,19.82
2018-06-22T01:25:17.832Z,19.81
2018-06-22T01:27:47.725Z,19.79
2018-06-22T01:30:16.682Z,19.78
2018-06-22T01:32:45.721Z,19.80
2018-06-22T01:35:14.710Z,19.78
2018-06-22T01:37:43.693Z,19.78
2018-06-22T01:40:12.704Z,19.77
2018-06-22T01:42:41.736Z,19.79
2018-06-22T01:45:10.768Z,19.83
2018-06-22T01:47:39.755Z,19.84
2018-06-22T01:50:08.796Z,19.84
2018-06-22T01:52:37.786Z,19.86
2018-06-22T01:55:06.816Z,19.83
2018-06-22T01:57:35.809Z,19.84
2018-06-22T02:00:04.969Z,19.84
2018-06-22T02:02:33.912Z,19.80
2018-06-22T02:05:02.944Z,19.90
2018-06-22T02:07:31.965Z,19.89
2018-06-22T02:10:00.972Z,19.90
2018-06-22T02:12:29.925Z,19.90
2018-06-22T02:14:58.920Z,19.92
2018-06-22T02:17:27.960Z,19.89
2018-06-22T02:19:56.887Z,19.90
2018-06-22T02:22:25.893Z,19.91
2018-06-22T02:24:54.912Z,19.92
2018-06-22T02:27:23.885Z,19.91
2018-06-22T02:29:52.937Z,19.89
2018-06-22T02:32:21.899Z,19.85
2018-06-22T02:34:50.918Z,19.82
2018-06-22T02:37:20.001Z,19.74
2018-06-22T02:39:49.053Z,19.81
2018-06-22T02:42:18.125Z,19.85
2018-06-22T02:44:47.142Z,19.87
2018-06-22T02:47:16.109Z,19.90
2018-06-22T02:49:45.041Z,19.90
2018-06-22T02:52:14.065Z,19.93
2018-06-22T02:54:42.996Z,19.94
2018-06-22T02:57:11.956Z,19.95
2018-06-22T02:59:40.909Z,19.94
2018-06-22T03:02:09.924Z,20.00
2018-06-22T03:04:38.944Z,20.06
2018-06-22T03:07:07.952Z,20.16
2018-06-22T03:09:36.928Z,20.24
2018-06-22T03:12:06.122Z,20.29
2018-06-22T03:14:35.055Z,20.39
2018-06-22T03:17:04.074Z,20.51
2018-06-22T03:19:33.113Z,20.61
2018-06-22T03:22:02.056Z,20.63
2018-06-22T03:24:31.007Z,20.56
2018-06-22T03:27:00.033Z,20.57
2018-06-22T03:29:28.987Z,20.67
2018-06-22T03:31:58.043Z,20.68
2018-06-22T03:34:27.140Z,20.73
2018-06-22T03:36:56.162Z,20.84
2018-06-22T03:39:25.165Z,21.01
2018-06-22T03:41:54.190Z,21.23
2018-06-22T03:44:23.164Z,21.41
2018-06-22T03:46:52.188Z,21.74
2018-06-22T03:49:21.220Z,22.36
2018-06-22T03:51:50.217Z,22.65
2018-06-22T03:54:19.245Z,22.83
2018-06-22T03:56:48.216Z,23.63
2018-06-22T03:59:17.253Z,24.94
2018-06-22T04:01:46.200Z,26.31
2018-06-22T04:04:15.184Z,26.98
2018-06-22T04:06:44.208Z,27.13
2018-06-22T04:09:13.235Z,27.67
2018-06-22T04:11:42.229Z,28.63
2018-06-22T04:14:11.290Z,29.63
2018-06-22T04:16:40.301Z,30.44
2018-06-22T04:19:09.361Z,31.34
2018-06-22T04:21:38.466Z,31.78
2018-06-22T04:24:07.412Z,32.09
2018-06-22T04:26:36.448Z,32.34
2018-06-22T04:29:05.426Z,32.51
2018-06-22T04:31:34.381Z,32.77
2018-06-22T04:34:03.411Z,32.69
2018-06-22T04:36:32.378Z,33.32
2018-06-22T04:39:01.430Z,33.98
2018-06-22T04:41:30.581Z,33.70
2018-06-22T04:43:59.599Z,33.81
2018-06-22T04:46:28.569Z,33.96
2018-06-22T04:48:57.584Z,34.11
2018-06-22T04:51:26.593Z,34.18
2018-06-22T04:53:55.689Z,35.26
2018-06-22T04:56:25.057Z,35.14
2018-06-22T04:58:54.113Z,34.91
2018-06-22T05:01:23.104Z,35.20
2018-06-22T05:03:52.090Z,34.97
2018-06-22T05:06:21.089Z,35.54
2018-06-22T05:08:50.052Z,36.31
2018-06-22T05:11:19.068Z,36.13
2018-06-22T05:13:48.038Z,36.14
2018-06-22T05:16:17.003Z,36.09
2018-06-22T05:18:46.999Z,36.42
2018-06-22T05:21:15.961Z,36.06
2018-06-22T05:23:44.908Z,35.57
2018-06-22T05:26:14.061Z,36.53
2018-06-22T05:28:43.074Z,36.79
2018-06-22T05:31:12.092Z,37.47
2018-06-22T05:33:41.173Z,37.08
2018-06-22T05:36:10.168Z,36.59
2018-06-22T05:38:39.253Z,36.15
2018-06-22T05:41:08.279Z,37.40
2018-06-22T05:43:37.312Z,36.89
2018-06-22T05:46:06.672Z,37.41
2018-06-22T05:48:35.803Z,37.66
2018-06-22T05:51:04.820Z,37.33
2018-06-22T05:53:33.740Z,37.87
2018-06-22T05:56:02.706Z,38.47
2018-06-22T05:58:31.656Z,38.74
2018-06-22T06:01:00.612Z,39.07
2018-06-22T06:03:29.663Z,38.56
2018-06-22T06:05:58.728Z,39.40
2018-06-22T06:08:27.840Z,40.47
2018-06-22T06:10:56.811Z,40.81
2018-06-22T06:13:25.949Z,40.82
2018-06-22T06:15:54.953Z,40.97
2018-06-22T06:18:23.901Z,40.94
2018-06-22T06:20:52.912Z,40.76
2018-06-22T06:23:21.872Z,40.57
2018-06-22T06:25:50.873Z,41.10
2018-06-22T06:28:19.836Z,40.69
2018-06-22T06:30:48.822Z,39.77
2018-06-22T06:33:17.788Z,38.86
2018-06-22T06:35:46.780Z,40.00
2018-06-22T06:38:15.857Z,40.80
2018-06-22T06:40:44.913Z,40.10
2018-06-22T06:43:14.625Z,39.92
2018-06-22T06:45:43.572Z,38.82
2018-06-22T06:48:12.708Z,38.55
2018-06-22T06:50:41.765Z,38.25
2018-06-22T06:53:10.732Z,38.67
2018-06-22T06:55:39.824Z,39.68
2018-06-22T06:58:08.819Z,38.99
2018-06-22T07:00:37.921Z,39.21
2018-06-22T07:03:06.917Z,37.61
2018-06-22T07:05:35.900Z,37.60
2018-06-22T07:08:04.849Z,36.77
2018-06-22T07:10:33.856Z,36.73
2018-06-22T07:13:02.788Z,36.50
2018-06-22T07:15:35.912Z,37.23
2018-06-22T07:18:04.966Z,37.51
2018-06-22T07:20:34.039Z,36.82
2018-06-22T07:23:03.045Z,37.06
2018-06-22T07:25:31.972Z,37.13
2018-06-22T07:28:01.020Z,37.07
2018-06-22T07:30:30.056Z,37.06
2018-06-22T07:32:59.016Z,37.43
2018-06-22T07:35:28.012Z,37.15
2018-06-22T07:37:57.053Z,36.58
2018-06-22T07:40:26.168Z,36.88
2018-06-22T07:42:55.249Z,36.42
2018-06-22T07:45:24.224Z,36.27
2018-06-22T07:47:53.172Z,35.85
2018-06-22T07:50:22.254Z,36.09
2018-06-22T07:52:51.260Z,36.02
2018-06-22T07:55:20.275Z,35.58
2018-06-22T07:57:49.282Z,34.75
2018-06-22T08:00:18.350Z,34.78
2018-06-22T08:02:47.325Z,34.44
2018-06-22T08:05:16.304Z,34.22
2018-06-22T08:07:45.340Z,34.03
2018-06-22T08:10:14.354Z,33.76
2018-06-22T08:12:43.487Z,33.71
2018-06-22T08:15:12.505Z,33.64
2018-06-22T08:17:41.547Z,33.32
2018-06-22T08:20:10.540Z,33.03
2018-06-22T08:22:39.640Z,33.25
2018-06-22T08:25:08.685Z,33.36
2018-06-22T08:27:37.752Z,33.44
2018-06-22T08:30:07.361Z,33.56
2018-06-22T08:32:36.316Z,33.60
2018-06-22T08:35:05.330Z,33.52
2018-06-22T08:37:34.529Z,33.73
2018-06-22T08:40:03.548Z,33.83
2018-06-22T08:42:32.622Z,33.85
2018-06-22T08:45:01.645Z,33.99
2018-06-22T08:47:30.731Z,34.18
2018-06-22T08:49:59.684Z,34.08
2018-06-22T08:52:28.850Z,33.93
2018-06-22T08:54:57.851Z,33.69
2018-06-22T08:57:26.911Z,33.56
2018-06-22T08:59:56.097Z,33.30
2018-06-22T09:02:25.128Z,33.29
2018-06-22T09:04:54.068Z,33.22
2018-06-22T09:07:23.045Z,33.17
2018-06-22T09:09:52.076Z,33.11
2018-06-22T09:12:21.094Z,33.04
2018-06-22T09:14:50.109Z,32.89
2018-06-22T09:17:19.150Z,33.29
2018-06-22T09:19:48.279Z,33.31
2018-06-22T09:22:17.343Z,33.18
2018-06-22T09:24:46.363Z,33.47
2018-06-22T09:27:15.405Z,33.86
2018-06-22T09:29:44.355Z,34.10
2018-06-22T09:32:13.400Z,34.06
2018-06-22T09:34:42.493Z,34.34
2018-06-22T09:37:11.617Z,34.18
2018-06-22T09:39:40.696Z,34.20
2018-06-22T09:42:09.717Z,34.21
2018-06-22T09:44:40.285Z,34.28
2018-06-22T09:47:09.960Z,34.32
2018-06-22T09:49:39.074Z,34.46
2018-06-22T09:52:08.053Z,34.89
2018-06-22T09:54:37.065Z,35.52
2018-06-22T09:57:06.041Z,35.63
2018-06-22T09:59:35.214Z,35.55
2018-06-22T10:02:04.343Z,35.75
2018-06-22T10:04:33.336Z,35.95
2018-06-22T10:07:02.320Z,36.21
2018-06-22T10:09:31.292Z,36.33
2018-06-22T10:12:00.244Z,37.10
2018-06-22T10:14:29.308Z,37.68
2018-06-22T10:16:58.320Z,37.68
2018-06-22T10:19:27.279Z,37.86
2018-06-22T10:21:56.241Z,38.11
2018-06-22T10:24:25.253Z,38.21
2018-06-22T10:26:54.395Z,38.86
2018-06-22T10:29:23.367Z,38.87
2018-06-22T10:31:52.461Z,39.42
2018-06-22T10:34:21.407Z,39.26
2018-06-22T10:36:50.472Z,39.90
2018-06-22T10:39:19.482Z,39.38
2018-06-22T10:41:48.475Z,39.70
2018-06-22T10:44:17.552Z,39.85
2018-06-22T10:46:46.552Z,40.00
2018-06-22T10:49:15.535Z,40.56
2018-06-22T10:51:44.572Z,40.11
2018-06-22T10:54:13.596Z,40.49
2018-06-22T10:56:42.566Z,40.81
2018-06-22T10:59:11.709Z,40.66
2018-06-22T11:01:40.663Z,39.92
2018-06-22T11:04:09.680Z,39.25
2018-06-22T11:06:38.660Z,40.06
2018-06-22T11:09:10.537Z,40.78
2018-06-22T11:11:39.561Z,40.57
2018-06-22T11:14:08.586Z,40.09
2018-06-22T11:16:37.687Z,39.74
2018-06-22T11:19:06.606Z,38.93
2018-06-22T11:21:35.722Z,39.65
2018-06-22T11:24:04.661Z,40.20
2018-06-22T11:26:33.698Z,40.64
2018-06-22T11:29:02.776Z,41.05
2018-06-22T11:31:31.716Z,41.84
2018-06-22T11:34:00.776Z,42.22
2018-06-22T11:36:29.817Z,40.73
2018-06-22T11:38:58.792Z,40.71
2018-06-22T11:41:27.749Z,40.86
2018-06-22T11:43:56.780Z,40.85
2018-06-22T11:46:25.774Z,40.47
2018-06-22T11:48:54.743Z,40.94
2018-06-22T11:51:23.814Z,40.12
2018-06-22T11:53:52.824Z,39.95
2018-06-22T11:56:21.784Z,40.08
2018-06-22T11:58:50.851Z,39.88
2018-06-22T12:01:19.867Z,40.16
2018-06-22T12:03:48.844Z,40.71
2018-06-22T12:06:17.828Z,41.86
2018-06-22T12:08:46.803Z,42.09
2018-06-22T12:11:15.758Z,43.05
2018-06-22T12:13:44.708Z,43.19
2018-06-22T12:16:13.697Z,43.65
2018-06-22T12:18:42.800Z,43.64
2018-06-22T12:21:11.801Z,43.60
2018-06-22T12:23:40.860Z,42.75
2018-06-22T12:26:09.977Z,42.09
2018-06-22T12:28:38.995Z,40.91
2018-06-22T12:31:08.013Z,40.32
2018-06-22T12:33:37.112Z,39.79
2018-06-22T12:36:06.915Z,39.24
2018-06-22T12:38:35.997Z,39.66
2018-06-22T12:41:04.995Z,39.62
2018-06-22T12:43:34.177Z,39.23
2018-06-22T12:46:03.141Z,38.59
2018-06-22T12:48:32.161Z,37.81
2018-06-22T12:51:01.131Z,37.41
2018-06-22T12:53:30.071Z,37.01
2018-06-22T12:55:59.025Z,36.78
2018-06-22T12:58:28.050Z,36.95
2018-06-22T13:00:57.111Z,36.86
2018-06-22T13:03:26.182Z,36.82
2018-06-22T13:05:55.193Z,37.40
2018-06-22T13:08:24.227Z,38.58
2018-06-22T13:10:53.192Z,39.06
2018-06-22T13:13:22.267Z,40.22
2018-06-22T13:15:51.276Z,41.45
2018-06-22T13:18:20.465Z,41.05
2018-06-22T13:20:49.425Z,41.20
2018-06-22T13:23:18.429Z,41.63
2018-06-22T13:25:47.453Z,42.11
2018-06-22T13:28:16.418Z,42.15
2018-06-22T13:30:45.500Z,43.03
2018-06-22T13:33:14.467Z,43.05
2018-06-22T13:35:43.537Z,42.68
2018-06-22T13:38:12.548Z,42.26
2018-06-22T13:40:41.488Z,42.23
2018-06-22T13:43:10.503Z,40.76
2018-06-22T13:45:39.897Z,40.00
2018-06-22T13:48:09.450Z,38.59
2018-06-22T13:50:38.940Z,37.85
2018-06-22T13:53:08.334Z,37.57
2018-06-22T13:55:37.419Z,37.23
2018-06-22T13:58:06.441Z,36.95
2018-06-22T14:00:35.431Z,36.87
2018-06-22T14:03:04.431Z,36.48
2018-06-22T14:05:38.588Z,35.98
2018-06-22T14:08:07.569Z,35.53
2018-06-22T14:10:36.588Z,35.24
2018-06-22T14:13:05.542Z,34.89
2018-06-22T14:15:34.606Z,34.78
2018-06-22T14:18:03.644Z,34.55
2018-06-22T14:20:32.654Z,34.46
2018-06-22T14:23:01.733Z,34.47
2018-06-22T14:25:30.698Z,34.23
2018-06-22T14:27:59.823Z,33.87
2018-06-22T14:30:28.798Z,33.62
2018-06-22T14:32:57.799Z,33.65
2018-06-22T14:35:26.953Z,33.32
2018-06-22T14:37:55.896Z,33.13
2018-06-22T14:40:24.891Z,32.98
2018-06-22T14:42:53.837Z,32.89
2018-06-22T14:45:22.826Z,32.70
2018-06-22T14:47:51.824Z,32.64
2018-06-22T14:50:20.876Z,32.51
2018-06-22T14:52:49.873Z,32.34
2018-06-22T14:55:23.958Z,32.18
2018-06-22T14:57:58.220Z,32.07
2018-06-22T15:00:32.349Z,32.01
2018-06-22T15:04:07.268Z,31.94
2018-06-22T15:06:41.376Z,31.90
2018-06-22T15:09:11.313Z,31.89
2018-06-22T15:11:40.385Z,31.73
2018-06-22T15:14:09.365Z,31.59
2018-06-22T15:16:38.385Z,31.53
2018-06-22T15:19:07.340Z,31.43
2018-06-22T15:21:36.349Z,31.32
2018-06-22T15:24:05.314Z,31.21
2018-06-22T15:26:34.360Z,31.06
2018-06-22T15:29:03.462Z,30.89
2018-06-22T15:31:32.408Z,30.71
2018-06-22T15:34:06.326Z,30.57
2018-06-22T15:36:40.553Z,30.33
2018-06-22T15:39:16.920Z,30.14
2018-06-22T15:41:50.976Z,29.93
2018-06-22T15:44:25.092Z,29.49
2018-06-22T15:46:59.065Z,28.93
2018-06-22T15:49:33.429Z,28.59
2018-06-22T15:52:07.542Z,28.09
2018-06-22T15:54:41.760Z,27.53
2018-06-22T15:57:10.874Z,27.12
2018-06-22T15:59:39.933Z,26.76
2018-06-22T16:02:13.824Z,26.06
2018-06-22T16:04:42.881Z,24.90
2018-06-22T16:07:11.854Z,23.89
2018-06-22T16:09:45.956Z,22.86
2018-06-22T16:12:19.956Z,22.19
2018-06-22T16:14:54.029Z,21.63
2018-06-22T16:17:28.099Z,21.23
2018-06-22T16:20:02.068Z,20.87
2018-06-22T16:24:41.320Z,20.62
2018-06-22T16:27:12.721Z,20.38
2018-06-22T16:29:41.800Z,20.33
2018-06-22T16:32:10.825Z,20.26
2018-06-22T16:34:39.809Z,20.19
2018-06-22T16:37:08.917Z,20.19
2018-06-22T16:39:37.949Z,20.16
2018-06-22T16:42:06.962Z,20.08
2018-06-22T16:44:35.985Z,20.03
2018-06-22T16:47:05.012Z,20.08
2018-06-22T16:49:34.076Z,20.06
2018-06-22T16:52:03.056Z,20.14
2018-06-22T16:54:32.068Z,20.13
2018-06-22T16:57:01.075Z,20.11
2018-06-22T16:59:30.150Z,20.12
2018-06-22T17:01:59.216Z,20.23
2018-06-22T17:04:28.222Z,20.21
2018-06-22T17:07:02.365Z,20.23
2018-06-22T17:09:36.488Z,20.33
2018-06-22T17:12:10.531Z,20.34
2018-06-22T17:14:44.417Z,20.27
2018-06-22T17:17:18.626Z,20.31
2018-06-22T17:19:47.702Z,20.32
2018-06-22T17:22:16.790Z,20.22
2018-06-22T17:24:45.814Z,20.16
2018-06-22T17:27:14.793Z,20.14
2018-06-22T17:29:43.942Z,20.04
2018-06-22T17:32:12.928Z,20.04
2018-06-22T17:34:41.888Z,19.99
2018-06-22T17:37:10.860Z,19.97
2018-06-22T17:39:39.812Z,20.02
2018-06-22T17:42:08.812Z,20.05
2018-06-22T17:44:37.772Z,20.05
2018-06-22T17:47:06.733Z,20.04
2018-06-22T17:49:35.689Z,20.11
2018-06-22T17:52:04.749Z,20.11
2018-06-22T17:54:33.853Z,20.15
2018-06-22T17:57:02.896Z,20.16
2018-06-22T17:59:36.972Z,20.11
2018-06-22T18:02:10.873Z,20.08
2018-06-22T18:04:43.965Z,20.07
2018-06-22T18:07:18.417Z,20.04
2018-06-22T18:09:52.577Z,20.08
2018-06-22T18:12:26.571Z,20.08
2018-06-22T18:14:55.579Z,20.09
2018-06-22T18:17:24.609Z,20.06
2018-06-22T18:19:53.572Z,20.04
2018-06-22T18:22:22.545Z,20.03
2018-06-22T18:24:51.493Z,20.02
2018-06-22T18:27:20.644Z,20.03
2018-06-22T18:29:49.619Z,19.99
2018-06-22T18:32:18.589Z,20.01
2018-06-22T18:34:47.578Z,20.01
2018-06-22T18:37:16.675Z,20.07
2018-06-22T18:39:45.676Z,20.11
2018-06-22T18:42:14.701Z,20.14
2018-06-22T18:44:43.676Z,20.12
2018-06-22T18:47:12.760Z,20.13
2018-06-22T18:49:41.771Z,20.12
2018-06-22T18:52:15.856Z,20.15
2018-06-22T18:54:50.006Z,20.16
2018-06-22T18:57:24.037Z,20.20
2018-06-22T18:59:58.344Z,20.17
2018-06-22T19:02:32.468Z,20.15
2018-06-22T19:05:01.580Z,20.16
2018-06-22T19:07:30.731Z,20.16
2018-06-22T19:09:59.714Z,20.17
2018-06-22T19:12:28.732Z,20.16
2018-06-22T19:14:57.753Z,20.18
2018-06-22T19:17:26.756Z,20.21
2018-06-22T19:19:55.861Z,20.18
2018-06-22T19:22:24.816Z,20.15
2018-06-22T19:24:53.821Z,20.09
2018-06-22T19:27:22.784Z,20.09
2018-06-22T19:29:51.730Z,20.06
2018-06-22T19:32:20.677Z,20.04
2018-06-22T19:34:54.596Z,20.03
2018-06-22T19:37:23.532Z,20.02
2018-06-22T19:39:52.605Z,19.98
2018-06-22T19:42:21.635Z,19.96
2018-06-22T19:44:55.482Z,19.94
2018-06-22T19:47:29.329Z,19.94
2018-06-22T19:50:03.240Z,19.95
2018-06-22T19:52:37.212Z,19.96
2018-06-22T19:55:06.196Z,19.96
2018-06-22T19:57:35.268Z,19.88
2018-06-22T20:00:04.352Z,19.88
2018-06-22T20:02:33.279Z,19.93
2018-06-22T20:05:02.345Z,19.99
2018-06-22T20:07:31.456Z,19.99
2018-06-22T20:10:00.400Z,20.04
2018-06-22T20:12:29.441Z,20.02
2018-06-22T20:14:58.705Z,20.02
2018-06-22T20:17:27.882Z,20.06
2018-06-22T20:19:56.876Z,20.11
2018-06-22T20:22:25.886Z,20.15
2018-06-22T20:24:59.882Z,20.14
2018-06-22T20:27:28.916Z,20.18
2018-06-22T20:29:58.523Z,20.20
2018-06-22T20:32:27.646Z,20.22
2018-06-22T20:35:01.644Z,20.23
2018-06-22T20:37:35.668Z,20.20
2018-06-22T20:40:09.721Z,20.18
2018-06-22T20:42:59.240Z,20.14
2018-06-22T20:45:33.313Z,20.10
2018-06-22T20:48:07.268Z,20.05
2018-06-22T20:50:37.142Z,20.03
2018-06-22T20:53:07.323Z,19.96
2018-06-22T20:55:36.360Z,19.92
2018-06-22T20:58:05.384Z,19.91
2018-06-22T21:00:34.328Z,19.89
2018-06-22T21:03:03.276Z,19.82
2018-06-22T21:05:32.224Z,19.79
2018-06-22T21:08:01.217Z,19.76
2018-06-22T21:10:30.228Z,19.75
2018-06-22T21:12:59.411Z,19.73
2018-06-22T21:15:28.438Z,19.68
2018-06-22T21:17:57.386Z,19.64
2018-06-22T21:20:26.408Z,19.62
2018-06-22T21:22:55.413Z,19.62
2018-06-22T21:25:24.467Z,19.60
2018-06-22T21:27:58.517Z,19.59
2018-06-22T21:30:32.632Z,19.56
2018-06-22T21:33:06.712Z,19.50
2018-06-22T21:35:40.684Z,19.45
2018-06-22T21:38:14.591Z,19.39
2018-06-22T21:40:43.644Z,19.39
2018-06-22T21:43:12.652Z,19.38
2018-06-22T21:45:41.612Z,19.36
2018-06-22T21:48:10.543Z,19.39
2018-06-22T21:50:39.488Z,19.40
2018-06-22T21:53:08.424Z,19.44
2018-06-22T21:55:37.429Z,19.46
2018-06-22T21:58:06.459Z,19.47
2018-06-22T22:00:35.435Z,19.45
2018-06-22T22:03:04.380Z,19.43
2018-06-22T22:05:33.328Z,19.39
2018-06-22T22:08:02.364Z,19.36
2018-06-22T22:10:36.493Z,19.32
2018-06-22T22:13:05.604Z,19.26
2018-06-22T22:15:34.576Z,19.23
2018-06-22T22:18:03.574Z,19.18
2018-06-22T22:20:32.580Z,19.20
2018-06-22T22:23:01.546Z,19.18
2018-06-22T22:25:30.609Z,19.14
2018-06-22T22:27:59.571Z,19.15
2018-06-22T22:30:28.522Z,19.15
2018-06-22T22:32:57.518Z,19.15
2018-06-22T22:35:26.518Z,19.20
2018-06-22T22:37:55.471Z,19.26
2018-06-22T22:40:24.411Z,19.30
2018-06-22T22:42:53.359Z,19.40
2018-06-22T22:45:22.376Z,19.48
2018-06-22T22:47:51.446Z,19.58
2018-06-22T22:50:20.457Z,19.65
2018-06-22T22:52:49.403Z,19.75
2018-06-22T22:55:18.424Z,19.83
2018-06-22T22:57:47.432Z,19.90
2018-06-22T23:00:16.415Z,19.93
2018-06-22T23:02:45.363Z,19.93
2018-06-22T23:05:14.465Z,20.01
2018-06-22T23:07:43.496Z,19.97
2018-06-22T23:10:12.546Z,19.99
2018-06-22T23:12:41.528Z,20.02
2018-06-22T23:15:10.475Z,20.07
2018-06-22T23:17:39.485Z,20.08
2018-06-22T23:20:08.435Z,20.01
2018-06-22T23:22:48.468Z,20.00
2018-06-22T23:25:17.401Z,19.93
2018-06-22T23:27:46.420Z,19.78
2018-06-22T23:30:15.492Z,19.66
2018-06-22T23:32:44.505Z,19.53
2018-06-22T23:35:13.460Z,19.35
2018-06-22T23:37:42.522Z,19.11
2018-06-22T23:40:11.516Z,18.98
2018-06-22T23:42:40.482Z,18.88
2018-06-22T23:45:09.456Z,18.76
2018-06-22T23:47:38.411Z,18.68
2018-06-22T23:50:07.339Z,18.65
2018-06-22T23:52:36.347Z,18.67
2018-06-22T23:55:05.315Z,18.61
2018-06-22T23:57:34.353Z,18.51
